Time;durP1;ratioP1;P1;durP2;ratioP2;P2;SDS_P1;SDS_P2;PMS_P1;PMS_P2;Temp;Humidity;BMP_temperature;BMP_pressure;BME280_temperature;BME280_humidity;BME280_pressure;Samples;Min_cycle;Max_cycle;Signal;HPM_P1;HPM_P2
2022/10/20 00:00:53;;;;;;;16.55;12.82;;;;;;;7.39;77.67;99533.78;5024950;28;20021;-88
2022/10/20 00:03:18;;;;;;;26.98;16.48;;;;;;;7.53;76.59;99517.56;5041208;28;20029;-88
2022/10/20 00:05:44;;;;;;;18.35;12.75;;;;;;;7.97;75.41;99513.25;5049765;28;20443;-88
2022/10/20 00:08:09;;;;;;;18.30;12.45;;;;;;;7.92;75.03;99527.19;5045192;28;20036;-88
2022/10/20 00:10:35;;;;;;;21.80;12.52;;;;;;;7.89;74.66;99465.66;5048043;28;20086;-88
2022/10/20 00:13:00;;;;;;;17.13;12.85;;;;;;;8.32;73.97;99513.63;5029514;28;20497;-87
2022/10/20 00:15:25;;;;;;;14.52;11.73;;;;;;;8.19;74.19;99493.25;5032505;28;20032;-88
2022/10/20 00:17:51;;;;;;;14.80;11.60;;;;;;;8.12;74.61;99505.78;5030291;28;20024;-88
2022/10/20 00:20:16;;;;;;;19.42;11.93;;;;;;;8.32;73.54;99498.47;5012682;28;20039;-88
2022/10/20 00:22:42;;;;;;;16.23;11.77;;;;;;;8.44;73.49;99514.53;5046388;28;20033;-87
2022/10/20 00:25:07;;;;;;;15.38;11.82;;;;;;;8.17;73.66;99481.97;5032557;28;20025;-88
2022/10/20 00:27:33;;;;;;;19.40;11.57;;;;;;;8.24;73.52;99486.22;5039252;28;20106;-87
2022/10/20 00:29:58;;;;;;;14.52;11.20;;;;;;;8.30;73.67;99485.38;5047119;28;20021;-87
2022/10/20 00:32:24;;;;;;;17.00;12.02;;;;;;;8.41;73.67;99499.81;5015603;28;20255;-88
2022/10/20 00:34:49;;;;;;;14.10;11.18;;;;;;;8.14;73.30;99474.47;5032785;28;20036;-88
2022/10/20 00:37:14;;;;;;;16.27;11.80;;;;;;;8.33;72.70;99486.78;5017574;28;20563;-87
2022/10/20 00:39:40;;;;;;;17.05;11.38;;;;;;;8.37;73.19;99503.13;5033116;28;20025;-87
2022/10/20 00:42:05;;;;;;;15.70;11.95;;;;;;;8.34;73.25;99493.75;5033227;28;20025;-88
2022/10/20 00:44:48;;;;;;;17.10;12.60;;;;;;;8.39;73.02;99496.56;5029391;28;20039;-88
2022/10/20 00:47:18;;;;;;;18.13;12.07;;;;;;;8.07;73.87;99471.03;5034231;28;20029;-87
2022/10/20 00:49:47;;;;;;;18.70;12.95;;;;;;;7.86;74.97;99474.06;5042878;28;20090;-87
2022/10/20 00:52:14;;;;;;;21.55;12.80;;;;;;;7.93;74.54;99475.63;5049081;28;20504;-88
2022/10/20 00:54:40;;;;;;;21.73;11.65;;;;;;;8.10;74.07;99487.34;5015470;28;20048;-88
2022/10/20 00:57:05;;;;;;;17.95;12.52;;;;;;;7.98;74.68;99467.00;5027721;28;20025;-87
2022/10/20 00:59:35;;;;;;;14.55;11.73;;;;;;;7.79;75.79;99487.41;5014707;28;20026;-87
2022/10/20 01:02:02;;;;;;;20.73;12.13;;;;;;;7.99;74.68;99480.09;5030828;28;20025;-87
2022/10/20 01:04:30;;;;;;;12.55;9.82;;;;;;;8.24;73.84;99478.25;5038201;28;20033;-88
2022/10/20 01:06:56;;;;;;;17.75;11.57;;;;;;;7.45;75.33;99427.53;5048946;28;21848;-87
2022/10/20 01:09:22;;;;;;;16.40;10.98;;;;;;;7.61;75.42;99454.59;5027908;28;20036;-87
2022/10/20 01:11:59;;;;;;;16.38;10.45;;;;;;;7.92;75.35;99470.53;5025653;28;20033;-87
2022/10/20 01:14:35;;;;;;;16.63;10.00;;;;;;;7.96;75.02;99455.78;5046218;28;20111;-88
2022/10/20 01:17:20;;;;;;;13.90;10.55;;;;;;;7.82;74.32;99433.81;5043254;28;20028;-88
2022/10/20 01:20:22;;;;;;;14.13;10.32;;;;;;;8.10;74.35;99459.97;5041306;28;20052;-87
2022/10/20 01:23:00;;;;;;;18.20;11.40;;;;;;;6.87;79.73;99462.31;5046604;28;20017;-87
2022/10/20 01:25:38;;;;;;;18.80;11.60;;;;;;;7.35;77.54;99431.69;5044074;28;20025;-87
2022/10/20 01:28:12;;;;;;;20.02;10.60;;;;;;;7.45;77.01;99454.09;5043467;28;20056;-87
2022/10/20 01:30:45;;;;;;;14.10;9.75;;;;;;;7.75;76.32;99443.69;5049616;28;20079;-88
2022/10/20 01:33:13;;;;;;;18.77;10.68;;;;;;;7.67;76.63;99456.41;5048125;28;20056;-88
2022/10/20 01:35:58;;;;;;;20.15;10.88;;;;;;;7.74;76.39;99451.84;5053617;28;20488;-88
2022/10/20 01:38:38;;;;;;;16.35;9.88;;;;;;;7.50;76.13;99408.28;5041049;28;20017;-88
2022/10/20 01:41:35;;;;;;;20.63;10.75;;;;;;;7.53;76.34;99413.97;5051380;28;20025;-87
2022/10/20 01:44:04;;;;;;;12.70;8.25;;;;;;;7.40;77.96;99434.53;5053478;28;20447;-87
2022/10/20 01:46:31;;;;;;;18.85;11.68;;;;;;;7.26;77.15;99430.31;5061896;28;20033;-87
2022/10/20 01:48:59;;;;;;;16.45;9.75;;;;;;;6.90;78.57;99396.41;5053506;28;20025;-87
2022/10/20 01:51:24;;;;;;;15.55;11.18;;;;;;;7.37;77.31;99403.91;5015872;28;20072;-87
2022/10/20 01:53:49;;;;;;;18.77;11.98;;;;;;;6.91;79.14;99426.38;5019315;28;20076;-88
2022/10/20 01:56:25;;;;;;;21.02;11.82;;;;;;;7.14;78.30;99411.56;5029446;28;20040;-88
2022/10/20 01:59:15;;;;;;;19.50;11.20;;;;;;;6.82;79.01;99415.19;5064248;28;20484;-87
2022/10/20 02:02:14;;;;;;;16.10;9.50;;;;;;;7.48;77.38;99387.28;5046636;28;20024;-88
2022/10/20 02:04:49;;;;;;;19.38;11.02;;;;;;;7.21;77.49;99377.84;5048392;28;20028;-88
2022/10/20 02:07:23;;;;;;;12.18;9.68;;;;;;;7.34;77.53;99377.75;5046453;28;20033;-88
2022/10/20 02:09:53;;;;;;;12.07;8.85;;;;;;;7.43;76.92;99392.41;5047263;28;20025;-87
2022/10/20 02:12:26;;;;;;;15.10;10.65;;;;;;;7.05;78.02;99351.00;5033449;28;20048;-87
2022/10/20 02:14:53;;;;;;;16.05;9.93;;;;;;;6.78;79.12;99371.53;5050491;28;20021;-87
2022/10/20 02:17:19;;;;;;;15.52;9.57;;;;;;;7.18;78.37;99394.22;5051385;28;20029;-87
2022/10/20 02:19:48;;;;;;;16.55;9.48;;;;;;;6.51;79.50;99378.78;5049310;28;20031;-87
2022/10/20 02:22:15;;;;;;;15.57;11.13;;;;;;;6.53;80.73;99375.94;5049717;28;20408;-88
2022/10/20 02:24:42;;;;;;;16.90;10.63;;;;;;;6.88;80.23;99377.19;5035692;28;20397;-87
2022/10/20 02:27:15;;;;;;;22.08;11.35;;;;;;;6.45;80.45;99366.38;5045228;28;20047;-87
2022/10/20 02:29:49;;;;;;;13.63;10.10;;;;;;;7.04;78.41;99363.44;5049650;28;20499;-87
2022/10/20 02:32:17;;;;;;;14.02;9.52;;;;;;;7.01;77.84;99363.88;5031402;28;20052;-87
2022/10/20 02:34:43;;;;;;;17.08;11.25;;;;;;;6.93;77.38;99352.69;5035370;28;20040;-87
2022/10/20 02:37:09;;;;;;;19.42;11.32;;;;;;;6.77;78.87;99360.13;5045641;28;20540;-87
2022/10/20 02:39:34;;;;;;;17.92;11.63;;;;;;;6.76;78.50;99350.53;5053038;28;20026;-87
2022/10/20 02:42:00;;;;;;;16.35;10.80;;;;;;;6.55;78.14;99289.03;5017600;28;20032;-87
2022/10/20 02:44:25;;;;;;;16.42;9.52;;;;;;;7.20;76.73;99285.97;5032571;28;20038;-87
2022/10/20 02:46:51;;;;;;;12.80;8.43;;;;;;;7.86;74.38;99360.63;5050017;28;20040;-87
2022/10/20 02:49:16;;;;;;;13.05;8.80;;;;;;;7.81;75.08;99325.91;5032875;28;20057;-87
2022/10/20 02:51:41;;;;;;;15.20;8.85;;;;;;;7.71;74.44;99317.59;5030257;28;20362;-88
2022/10/20 02:54:07;;;;;;;14.82;8.10;;;;;;;7.88;74.67;99357.72;5031206;28;20595;-88
2022/10/20 02:56:32;;;;;;;12.93;8.98;;;;;;;7.87;74.39;99332.16;5063668;28;20102;-88
2022/10/20 02:58:57;;;;;;;10.05;7.82;;;;;;;7.90;74.44;99353.00;5048005;28;20024;-87
2022/10/20 03:01:24;;;;;;;14.57;9.35;;;;;;;7.80;74.28;99336.75;5034415;28;20045;-87
2022/10/20 03:03:49;;;;;;;17.25;9.57;;;;;;;7.70;75.32;99353.19;5050688;28;20052;-87
2022/10/20 03:06:15;;;;;;;11.90;7.90;;;;;;;7.70;74.49;99323.13;5047600;28;20060;-87
2022/10/20 03:08:41;;;;;;;15.02;8.35;;;;;;;7.12;76.11;99280.91;5028084;28;20033;-88
2022/10/20 03:11:06;;;;;;;14.43;8.40;;;;;;;7.48;75.72;99328.03;5035042;28;20377;-88
2022/10/20 03:13:32;;;;;;;17.02;10.35;;;;;;;6.52;77.24;99282.31;5035445;28;20025;-87
2022/10/20 03:15:58;;;;;;;14.60;10.10;;;;;;;6.68;77.66;99304.88;5035297;28;20029;-87
2022/10/20 03:18:23;;;;;;;12.52;9.35;;;;;;;7.00;75.77;99236.72;5044614;28;20036;-87
2022/10/20 03:20:53;;;;;;;14.25;9.23;;;;;;;7.74;75.03;99337.59;5018214;28;20039;-87
2022/10/20 03:23:18;;;;;;;9.32;7.43;;;;;;;7.73;74.65;99320.88;5049166;28;20087;-87
2022/10/20 03:25:44;;;;;;;14.85;8.55;;;;;;;7.68;74.80;99304.78;5051655;28;20115;-88
2022/10/20 03:28:09;;;;;;;12.57;7.82;;;;;;;7.71;74.73;99332.75;5051292;28;20028;-88
2022/10/20 03:30:35;;;;;;;11.07;7.78;;;;;;;7.80;74.53;99321.59;5021642;28;20104;-88
2022/10/20 03:33:00;;;;;;;11.88;8.07;;;;;;;7.85;74.06;99324.44;5049642;28;20028;-88
2022/10/20 03:35:25;;;;;;;14.77;8.52;;;;;;;7.71;73.91;99288.38;5034516;28;20037;-87
2022/10/20 03:37:51;;;;;;;14.88;8.25;;;;;;;7.40;74.04;99256.59;5049175;28;20063;-88
2022/10/20 03:40:16;;;;;;;12.68;9.02;;;;;;;7.75;74.23;99304.72;5048959;28;20431;-88
2022/10/20 03:42:42;;;;;;;9.90;8.10;;;;;;;7.69;74.42;99306.38;5045333;28;20021;-88
2022/10/20 03:45:08;;;;;;;10.82;8.27;;;;;;;7.73;73.99;99304.13;5021924;28;20095;-87
2022/10/20 03:47:33;;;;;;;11.35;8.82;;;;;;;7.82;74.08;99303.59;5027388;28;20038;-88
2022/10/20 03:49:58;;;;;;;9.73;7.75;;;;;;;7.71;74.00;99288.38;5031886;28;20036;-88
2022/10/20 03:52:24;;;;;;;13.23;8.60;;;;;;;7.54;74.28;99277.50;5018715;28;20071;-88
2022/10/20 03:54:49;;;;;;;14.10;8.65;;;;;;;7.68;74.74;99290.66;5047093;28;20083;-88
2022/10/20 03:57:15;;;;;;;16.98;9.95;;;;;;;7.47;74.20;99266.13;5029005;28;20037;-88
2022/10/20 03:59:40;;;;;;;15.65;9.68;;;;;;;7.27;75.07;99262.03;5046021;28;20033;-87
2022/10/20 04:02:05;;;;;;;13.30;10.30;;;;;;;6.74;75.52;99224.44;5015581;28;20033;-87
2022/10/20 04:04:31;;;;;;;14.50;9.93;;;;;;;7.41;75.45;99279.47;5032544;28;20090;-87
2022/10/20 04:06:56;;;;;;;14.68;9.77;;;;;;;7.31;74.76;99248.09;5014259;28;20037;-87
2022/10/20 04:09:21;;;;;;;16.02;10.98;;;;;;;7.11;74.65;99249.28;5049844;28;20413;-87
2022/10/20 04:11:47;;;;;;;16.05;10.85;;;;;;;6.66;77.04;99280.41;5033602;28;20056;-87
2022/10/20 04:14:12;;;;;;;16.25;12.60;;;;;;;6.32;76.79;99210.00;5031146;28;20178;-87
2022/10/20 04:16:38;;;;;;;14.13;10.45;;;;;;;7.25;76.59;99274.72;5031709;28;20034;-87
2022/10/20 04:19:03;;;;;;;16.38;12.23;;;;;;;6.40;77.21;99244.22;5030526;28;20481;-87
2022/10/20 04:21:28;;;;;;;13.90;11.52;;;;;;;6.02;79.53;99246.03;5017054;28;20124;-87
2022/10/20 04:23:54;;;;;;;16.45;11.38;;;;;;;6.11;79.95;99241.31;5047105;28;20029;-87
2022/10/20 04:26:19;;;;;;;17.73;10.88;;;;;;;6.56;78.59;99253.53;5050821;28;20040;-87
2022/10/20 04:28:44;;;;;;;17.00;11.38;;;;;;;5.55;82.23;99222.50;5011151;28;20159;-87
2022/10/20 04:31:10;;;;;;;18.10;11.13;;;;;;;6.10;79.75;99240.50;5032000;28;20116;-88
2022/10/20 04:33:35;;;;;;;18.15;11.25;;;;;;;6.41;79.01;99221.19;5028815;28;20031;-87
2022/10/20 04:36:05;;;;;;;21.83;12.38;;;;;;;6.65;78.62;99236.34;5041397;28;20102;-87
2022/10/20 04:38:31;;;;;;;13.52;10.38;;;;;;;7.22;76.53;99238.78;5027585;28;20070;-87
2022/10/20 04:40:58;;;;;;;13.68;10.73;;;;;;;7.17;75.41;99200.63;5046327;28;20644;-87
2022/10/20 04:43:23;;;;;;;14.45;10.35;;;;;;;6.92;74.86;99189.22;5047120;28;20143;-87
2022/10/20 04:45:49;;;;;;;16.50;11.15;;;;;;;7.15;75.65;99224.75;5032480;28;20108;-87
2022/10/20 04:48:15;;;;;;;18.23;11.30;;;;;;;7.29;75.51;99249.34;5025924;28;20060;-87
2022/10/20 04:50:40;;;;;;;18.42;12.07;;;;;;;7.04;75.43;99235.25;5044632;28;20024;-87
2022/10/20 04:53:06;;;;;;;18.35;12.95;;;;;;;6.50;77.49;99238.47;5040533;28;20552;-87
2022/10/20 04:55:32;;;;;;;18.33;13.65;;;;;;;6.07;76.71;99137.59;5025113;28;20025;-87
2022/10/20 04:57:57;;;;;;;14.57;12.68;;;;;;;6.25;78.49;99229.63;5047398;28;20511;-87
2022/10/20 05:00:22;;;;;;;18.58;12.13;;;;;;;6.56;79.07;99227.00;5015297;28;20045;-87
2022/10/20 05:02:48;;;;;;;16.23;12.63;;;;;;;6.82;77.36;99216.22;5030147;28;20558;-87
2022/10/20 05:05:13;;;;;;;15.38;11.85;;;;;;;6.88;76.31;99190.69;5032017;28;20040;-87
2022/10/20 05:07:38;;;;;;;19.10;12.52;;;;;;;6.98;76.67;99197.13;5027145;28;20026;-88
2022/10/20 05:10:04;;;;;;;15.38;10.88;;;;;;;7.27;75.30;99201.75;5044509;28;20043;-87
2022/10/20 05:12:30;;;;;;;17.55;11.00;;;;;;;7.24;74.93;99204.03;5029507;28;20071;-87
2022/10/20 05:14:55;;;;;;;15.77;11.05;;;;;;;7.28;74.95;99170.72;5026493;28;20021;-87
2022/10/20 05:17:21;;;;;;;16.65;11.65;;;;;;;7.21;75.15;99178.75;5022987;28;20042;-87
2022/10/20 05:19:46;;;;;;;22.38;14.23;;;;;;;6.64;76.58;99198.38;5026327;28;20066;-88
2022/10/20 05:22:11;;;;;;;16.70;12.38;;;;;;;7.14;75.63;99193.13;5025419;28;20041;-87
2022/10/20 05:24:37;;;;;;;17.30;11.80;;;;;;;7.11;75.78;99194.38;5022653;28;20057;-88
2022/10/20 05:27:02;;;;;;;19.08;13.10;;;;;;;6.62;76.31;99194.31;5045898;28;20068;-88
2022/10/20 05:29:28;;;;;;;21.40;15.00;;;;;;;6.36;77.95;99154.72;5026655;28;20043;-87
2022/10/20 05:31:53;;;;;;;24.80;15.38;;;;;;;6.11;77.47;99133.50;5026356;28;20033;-88
2022/10/20 05:34:18;;;;;;;19.33;12.82;;;;;;;6.22;77.56;99121.38;5040634;28;20034;-88
2022/10/20 05:36:44;;;;;;;19.85;13.25;;;;;;;6.44;76.85;99112.88;5042539;28;20087;-88
2022/10/20 05:39:10;;;;;;;20.00;13.02;;;;;;;7.05;75.71;99171.34;5041616;28;20060;-87
2022/10/20 05:41:35;;;;;;;19.45;13.68;;;;;;;6.39;76.19;99109.25;5043526;28;20034;-88
2022/10/20 05:44:03;;;;;;;25.80;17.58;;;;;;;5.44;78.43;99088.94;5030415;28;20028;-88
2022/10/20 05:46:31;;;;;;;28.77;17.20;;;;;;;5.66;80.37;99167.06;5044130;28;20053;-88
2022/10/20 05:48:59;;;;;;;22.25;14.50;;;;;;;5.67;79.09;99105.16;5029912;28;20401;-87
2022/10/20 05:51:27;;;;;;;25.20;16.85;;;;;;;6.33;78.72;99157.81;5027080;28;20021;-88
2022/10/20 05:53:57;;;;;;;21.00;14.20;;;;;;;5.89;78.45;99093.25;5025596;28;20029;-88
2022/10/20 05:56:24;;;;;;;23.02;15.43;;;;;;;5.82;79.78;99174.53;5042011;28;20056;-88
2022/10/20 05:58:49;;;;;;;18.67;13.13;;;;;;;6.67;78.01;99162.66;5040747;28;20063;-87
2022/10/20 06:01:22;;;;;;;24.55;13.48;;;;;;;7.16;76.04;99167.16;5032373;28;20076;-87
2022/10/20 06:03:53;;;;;;;19.10;13.43;;;;;;;7.27;75.26;99174.41;5017881;28;20040;-87
2022/10/20 06:06:20;;;;;;;20.50;13.13;;;;;;;7.24;74.58;99177.50;5027253;28;20029;-87
2022/10/20 06:08:46;;;;;;;18.65;13.45;;;;;;;7.06;75.32;99141.13;5043420;28;20021;-87
2022/10/20 06:11:13;;;;;;;19.52;12.85;;;;;;;7.28;75.23;99181.34;5047994;28;20094;-87
2022/10/20 06:13:39;;;;;;;19.45;13.23;;;;;;;6.63;77.45;99158.81;5033924;28;20116;-87
2022/10/20 06:16:24;;;;;;;21.83;14.32;;;;;;;6.86;76.69;99168.88;5035850;28;20033;-87
2022/10/20 06:18:51;;;;;;;21.60;13.55;;;;;;;6.92;76.75;99174.13;5030943;28;20021;-87
2022/10/20 06:21:19;;;;;;;26.73;13.25;;;;;;;7.07;75.95;99166.63;5050211;28;20060;-87
2022/10/20 06:23:44;;;;;;;28.08;17.40;;;;;;;6.43;78.46;99182.00;5028553;28;20029;-87
2022/10/20 06:26:13;;;;;;;23.10;16.08;;;;;;;5.59;82.04;99181.34;5049460;28;20192;-87
2022/10/20 06:28:40;;;;;;;32.40;18.05;;;;;;;5.10;84.98;99172.09;5049500;28;20025;-87
2022/10/20 06:31:16;;;;;;;29.23;18.63;;;;;;;4.50;87.39;99177.53;5047446;28;20056;-87
2022/10/20 06:33:43;;;;;;;28.02;17.00;;;;;;;5.87;81.84;99147.47;5049302;28;20086;-87
2022/10/20 06:36:09;;;;;;;24.95;15.77;;;;;;;5.69;83.41;99152.59;5041356;28;20857;-87
2022/10/20 06:38:35;;;;;;;34.95;18.40;;;;;;;5.11;84.06;99146.44;5051653;28;20028;-87
2022/10/20 06:41:06;;;;;;;23.02;15.45;;;;;;;5.89;81.95;99145.41;5035323;28;20032;-87
2022/10/20 06:43:31;;;;;;;28.98;17.48;;;;;;;5.36;82.65;99128.88;5045202;28;20040;-87
2022/10/20 06:46:02;;;;;;;34.42;19.55;;;;;;;4.56;86.82;99145.84;5020288;28;20033;-87
2022/10/20 06:48:28;;;;;;;32.80;18.52;;;;;;;4.76;86.93;99132.63;5034783;28;20158;-87
2022/10/20 06:50:58;;;;;;;27.90;17.17;;;;;;;5.13;85.96;99139.13;5034723;28;20034;-87
2022/10/20 06:53:24;;;;;;;35.17;18.77;;;;;;;5.12;86.66;99148.06;5052703;28;20025;-86
2022/10/20 06:56:09;;;;;;;26.02;16.67;;;;;;;5.28;85.95;99129.94;5048099;28;20102;-87
2022/10/20 06:58:36;;;;;;;31.48;18.13;;;;;;;5.10;86.58;99147.47;5047332;28;20420;-87
2022/10/20 07:01:03;;;;;;;28.02;17.13;;;;;;;5.15;87.70;99147.66;5048343;28;20075;-86
2022/10/20 07:03:29;;;;;;;28.88;17.63;;;;;;;5.05;87.78;99115.50;5043640;28;20033;-87
2022/10/20 07:05:55;;;;;;;25.75;15.93;;;;;;;6.05;83.07;99118.41;5048948;28;20029;-87
2022/10/20 07:08:22;;;;;;;24.02;15.57;;;;;;;6.07;83.01;99141.03;5051179;28;20025;-87
2022/10/20 07:10:55;;;;;;;33.65;19.63;;;;;;;5.46;86.28;99128.44;5042712;28;20425;-87
2022/10/20 07:13:21;;;;;;;28.45;17.50;;;;;;;5.86;82.56;99063.72;5052169;28;20025;-87
2022/10/20 07:15:46;;;;;;;27.70;17.80;;;;;;;5.62;84.92;99134.09;5017110;28;20394;-87
2022/10/20 07:18:11;;;;;;;31.25;17.48;;;;;;;5.42;87.32;99116.66;5021611;28;20164;-86
2022/10/20 07:20:37;;;;;;;28.85;18.60;;;;;;;5.58;86.89;99134.72;5007888;28;20036;-87
2022/10/20 07:23:02;;;;;;;27.73;17.38;;;;;;;5.58;85.43;99110.88;5033092;28;20040;-86
2022/10/20 07:25:28;;;;;;;35.45;19.17;;;;;;;6.01;84.08;99117.22;5049449;28;20098;-87
2022/10/20 07:27:54;;;;;;;27.80;17.50;;;;;;;6.17;84.38;99106.13;5030390;28;20032;-87
2022/10/20 07:30:19;;;;;;;30.20;15.82;;;;;;;6.04;84.56;99091.13;5017164;28;20515;-87
2022/10/20 07:32:45;;;;;;;25.83;16.63;;;;;;;5.94;84.02;99093.41;5017622;28;20044;-87
2022/10/20 07:35:10;;;;;;;28.23;16.20;;;;;;;6.07;85.16;99106.59;5013413;28;20520;-87
2022/10/20 07:37:36;;;;;;;33.28;19.15;;;;;;;5.64;86.63;99105.56;5031102;28;20029;-87
2022/10/20 07:40:01;;;;;;;32.22;16.95;;;;;;;5.99;85.77;99113.97;5017137;28;20056;-86
2022/10/20 07:42:28;;;;;;;28.73;18.42;;;;;;;6.54;82.30;99112.38;5030502;28;20489;-86
2022/10/20 07:44:53;;;;;;;29.15;17.73;;;;;;;6.65;82.71;99119.63;5033402;28;20037;-86
2022/10/20 07:47:18;;;;;;;24.25;16.08;;;;;;;6.88;81.27;99119.06;5048007;28;20147;-86
2022/10/20 07:49:44;;;;;;;28.80;15.80;;;;;;;6.23;82.50;99084.06;5041899;28;20028;-86
2022/10/20 07:52:11;;;;;;;26.45;16.90;;;;;;;6.23;83.51;99097.31;5013308;28;20066;-86
2022/10/20 07:54:37;;;;;;;28.42;18.23;;;;;;;6.11;83.65;99084.97;5042823;28;20041;-86
2022/10/20 07:57:02;;;;;;;29.73;19.15;;;;;;;6.76;81.85;99074.66;5048318;28;20443;-86
2022/10/20 07:59:28;;;;;;;30.15;16.92;;;;;;;6.79;82.15;99113.22;5051674;28;20119;-86
2022/10/20 08:01:54;;;;;;;29.35;17.42;;;;;;;6.84;81.59;99097.44;5034648;28;20025;-87
2022/10/20 08:04:19;;;;;;;26.50;17.50;;;;;;;7.05;81.42;99106.84;5042904;28;20079;-87
2022/10/20 08:06:46;;;;;;;24.08;16.50;;;;;;;7.37;79.53;99111.81;5031988;28;20048;-87
2022/10/20 08:09:11;;;;;;;24.80;15.85;;;;;;;7.28;81.07;99126.41;5043206;28;20447;-87
2022/10/20 08:11:37;;;;;;;25.55;17.25;;;;;;;6.83;82.75;99109.09;5033774;28;20115;-88
2022/10/20 08:14:02;;;;;;;25.40;16.70;;;;;;;7.16;80.85;99114.91;5038376;28;20116;-86
2022/10/20 08:16:28;;;;;;;27.88;16.98;;;;;;;6.79;82.73;99102.59;5029193;28;20087;-87
2022/10/20 08:18:53;;;;;;;24.10;17.05;;;;;;;6.44;85.15;99120.84;5037823;28;20021;-87
2022/10/20 08:21:21;;;;;;;23.20;16.50;;;;;;;6.65;84.33;99114.34;5026597;28;20033;-86
2022/10/20 08:23:48;;;;;;;24.08;16.65;;;;;;;6.82;83.49;99116.22;5043525;28;20067;-86
2022/10/20 08:26:19;;;;;;;27.02;16.77;;;;;;;6.50;86.16;99113.84;5039844;28;20030;-86
2022/10/20 08:28:46;;;;;;;29.95;18.63;;;;;;;6.51;85.56;99094.28;5049603;28;20044;-87
2022/10/20 08:31:11;;;;;;;27.40;17.77;;;;;;;6.07;87.02;99095.19;5026231;28;20048;-87
2022/10/20 08:33:36;;;;;;;24.15;14.93;;;;;;;6.80;85.42;99110.34;5015576;28;20029;-87
2022/10/20 08:36:08;;;;;;;29.90;16.20;;;;;;;7.19;82.60;99103.81;5031438;28;20511;-87
2022/10/20 08:38:34;;;;;;;29.73;16.60;;;;;;;6.56;85.62;99075.84;5045522;28;20021;-86
2022/10/20 08:41:01;;;;;;;22.67;14.70;;;;;;;6.61;85.18;99076.84;5063476;28;20023;-86
2022/10/20 08:43:28;;;;;;;20.98;14.93;;;;;;;7.06;83.83;99088.03;5050360;28;20036;-86
2022/10/20 08:45:54;;;;;;;24.20;16.08;;;;;;;6.96;84.79;99095.69;5045451;28;20143;-86
2022/10/20 08:48:23;;;;;;;23.52;15.35;;;;;;;7.02;84.55;99089.50;5013151;28;20144;-86
2022/10/20 08:50:51;;;;;;;26.10;17.50;;;;;;;6.85;85.36;99093.75;5030158;28;20115;-86
2022/10/20 08:53:20;;;;;;;26.15;16.63;;;;;;;6.48;86.90;99097.34;5047176;28;20029;-86
2022/10/20 08:55:45;;;;;;;21.63;15.55;;;;;;;6.82;85.92;99100.31;5046089;28;20408;-86
2022/10/20 08:58:20;;;;;;;26.60;15.98;;;;;;;6.90;85.90;99096.59;5042520;28;20037;-87
2022/10/20 09:00:46;;;;;;;22.55;15.45;;;;;;;6.97;84.35;99085.91;5040731;28;20397;-83
2022/10/20 09:03:26;;;;;;;22.52;14.57;;;;;;;7.22;84.42;99082.16;5025875;28;20521;-83
2022/10/20 09:06:00;;;;;;;18.67;13.55;;;;;;;7.34;83.33;99045.03;5045114;28;20045;-83
2022/10/20 09:08:28;;;;;;;21.00;15.27;;;;;;;7.02;84.11;99062.97;5045159;28;20037;-83
2022/10/20 09:10:54;;;;;;;24.02;14.90;;;;;;;7.01;84.20;99063.19;5040257;28;20429;-83
2022/10/20 09:13:24;;;;;;;20.80;15.02;;;;;;;7.57;84.42;99083.19;5026203;28;20040;-83
2022/10/20 09:15:59;;;;;;;18.95;14.35;;;;;;;7.74;83.37;99078.06;5064664;28;20111;-83
2022/10/20 09:18:25;;;;;;;23.27;15.68;;;;;;;7.33;85.02;99070.81;5061790;28;20028;-83
2022/10/20 09:21:03;;;;;;;25.20;14.63;;;;;;;7.36;84.85;99057.06;5035625;28;20111;-83
2022/10/20 09:23:36;;;;;;;21.95;16.63;;;;;;;7.62;84.01;99053.28;5038952;28;20034;-84
2022/10/20 09:26:01;;;;;;;22.42;15.80;;;;;;;7.72;84.06;99064.19;5045093;28;20033;-83
2022/10/20 09:28:27;;;;;;;22.15;14.98;;;;;;;7.51;84.84;99038.13;5026777;28;20099;-83
2022/10/20 09:30:54;;;;;;;20.52;14.75;;;;;;;7.66;85.18;99049.16;5045040;28;20415;-83
2022/10/20 09:33:28;;;;;;;22.58;16.02;;;;;;;7.81;84.96;99056.72;5042043;28;20031;-84
2022/10/20 09:36:19;;;;;;;20.17;14.80;;;;;;;7.69;85.15;99042.59;5044386;28;20029;-84
2022/10/20 09:38:48;;;;;;;27.85;16.10;;;;;;;7.48;85.94;99009.34;5055735;28;20033;-83
2022/10/20 09:41:20;;;;;;;18.05;13.43;;;;;;;8.12;83.17;99037.88;5040729;28;20531;-85
2022/10/20 09:43:58;;;;;;;19.88;13.82;;;;;;;8.18;83.28;99029.78;5030651;28;20530;-84
2022/10/20 09:46:47;;;;;;;21.20;13.35;;;;;;;7.95;85.07;99015.63;5043427;28;20103;-85
2022/10/20 09:49:36;;;;;;;17.40;12.48;;;;;;;7.99;84.87;98998.19;5046152;28;20037;-85
2022/10/20 09:52:13;;;;;;;21.77;13.65;;;;;;;8.31;84.16;99020.81;5049443;28;20502;-85
2022/10/20 09:54:38;;;;;;;19.00;14.10;;;;;;;8.19;84.70;99006.69;5021076;28;20397;-85
2022/10/20 09:57:07;;;;;;;19.90;13.63;;;;;;;8.26;84.25;98992.25;5037019;28;20043;-86
2022/10/20 09:59:36;;;;;;;19.60;14.23;;;;;;;8.43;84.64;98997.69;5036307;28;20040;-86
2022/10/20 10:02:21;;;;;;;20.60;15.10;;;;;;;8.41;84.27;99014.94;5048357;28;20021;-85
2022/10/20 10:04:49;;;;;;;16.80;13.45;;;;;;;8.25;84.69;98976.50;5051286;28;20384;-86
2022/10/20 10:07:20;;;;;;;22.02;13.13;;;;;;;8.81;83.70;99000.69;5047641;28;20029;-86
2022/10/20 10:09:56;;;;;;;19.02;13.32;;;;;;;8.80;83.43;98992.97;5047198;28;20059;-86
2022/10/20 10:12:23;;;;;;;19.92;13.52;;;;;;;8.55;84.48;98968.44;5053570;28;20087;-85
2022/10/20 10:15:02;;;;;;;21.83;12.65;;;;;;;8.69;84.08;98953.88;5049870;28;20500;-85
2022/10/20 10:17:39;;;;;;;16.75;12.68;;;;;;;9.03;84.16;98972.44;5046478;28;20495;-85
2022/10/20 10:20:11;;;;;;;18.15;12.93;;;;;;;9.18;83.71;98974.56;5051467;28;20035;-85
2022/10/20 10:22:38;;;;;;;20.75;14.50;;;;;;;8.99;83.07;98952.66;5045772;28;20033;-83
2022/10/20 10:25:05;;;;;;;17.90;12.85;;;;;;;9.02;83.31;98933.53;5030408;28;20035;-85
2022/10/20 10:27:35;;;;;;;18.05;13.00;;;;;;;9.28;83.36;98960.66;5052809;28;20028;-85
2022/10/20 10:30:22;;;;;;;17.15;13.25;;;;;;;9.34;83.46;98962.38;5029656;28;20079;-85
2022/10/20 10:32:48;;;;;;;19.27;13.15;;;;;;;9.28;84.15;98920.72;5051207;28;20036;-85
2022/10/20 10:35:36;;;;;;;19.30;12.80;;;;;;;9.85;82.77;98950.78;5032452;28;20029;-84
2022/10/20 10:38:02;;;;;;;17.00;13.02;;;;;;;9.49;82.56;98938.69;5053878;28;20028;-85
2022/10/20 10:40:31;;;;;;;20.23;13.25;;;;;;;9.44;82.49;98941.25;5052653;28;20016;-85
2022/10/20 10:43:16;;;;;;;18.98;13.98;;;;;;;9.70;82.78;98930.81;5055399;28;20029;-85
2022/10/20 10:45:56;;;;;;;16.98;12.63;;;;;;;9.33;81.89;98851.53;5050124;28;20021;-85
2022/10/20 10:48:44;;;;;;;16.52;11.52;;;;;;;9.60;81.97;98919.97;5049553;28;20136;-85
2022/10/20 10:51:20;;;;;;;15.30;11.98;;;;;;;9.60;82.27;98906.66;5054993;28;20025;-85
2022/10/20 10:54:04;;;;;;;16.42;13.20;;;;;;;9.79;81.71;98918.69;5051189;28;20029;-85
2022/10/20 10:56:35;;;;;;;16.95;11.65;;;;;;;9.94;82.09;98914.69;5051928;28;20025;-85
2022/10/20 10:59:10;;;;;;;15.32;12.43;;;;;;;9.96;82.09;98907.25;5048938;28;20071;-85
2022/10/20 11:02:01;;;;;;;16.10;11.52;;;;;;;10.17;82.13;98911.88;5047577;28;20029;-86
2022/10/20 11:04:27;;;;;;;13.35;11.55;;;;;;;10.20;81.48;98893.50;5050625;28;20021;-85
2022/10/20 11:07:09;;;;;;;17.52;12.15;;;;;;;10.06;82.12;98878.06;5054672;28;20029;-85
2022/10/20 11:09:46;;;;;;;14.90;12.00;;;;;;;10.31;82.20;98887.25;5048999;28;20057;-86
2022/10/20 11:12:27;;;;;;;21.88;12.30;;;;;;;10.47;81.38;98888.28;5048230;28;20492;-87
2022/10/20 11:15:40;;;;;;;18.60;11.48;;;;;;;10.45;81.09;98877.06;5066613;28;20056;-87
2022/10/20 11:18:44;;;;;;;19.45;12.15;;;;;;;10.45;80.50;98883.19;5051892;28;20032;-86
2022/10/20 11:21:29;;;;;;;17.30;12.00;;;;;;;10.31;80.70;98865.13;5048551;28;20528;-84
2022/10/20 11:24:06;;;;;;;15.50;10.68;;;;;;;10.64;81.44;98865.00;5046409;28;20021;-86
2022/10/20 11:26:34;;;;;;;16.95;11.23;;;;;;;10.57;80.93;98855.59;5065245;28;20025;-85
2022/10/20 11:29:08;;;;;;;15.63;10.38;;;;;;;10.82;80.46;98845.22;5046330;28;20025;-85
2022/10/20 11:31:54;;;;;;;12.35;9.65;;;;;;;10.90;80.58;98840.22;5027992;28;20029;-85
2022/10/20 11:34:33;;;;;;;12.82;10.65;;;;;;;11.05;80.23;98871.66;5034148;28;20037;-85
2022/10/20 11:37:05;;;;;;;17.20;10.07;;;;;;;10.94;79.31;98838.66;5046519;28;20064;-85